Skip Navigation Links Skip Navigation Links

Current Weather

Greater Rockford, Rockford, Ill.

For information only: do not use for flight planning or navigation.
Latest weather
Observation time Wednesday, February 20, 2019 11:03 AM CST
Local time Wednesday, February 20, 2019 11:57 AM CST
Flight conditions Instrument Meteorological Conditions
Winds
Wind direction East-Southeast (120°)
Wind speed 17 mph
Visibility 1.75 mi.
Present weather light rain, mist
Sky condition
Ceiling 700 ft. overcast
Cloud layer overcast 700 ft.
Temperature 34°F
Dewpoint 30°F
Altimeter 29.75 in.Hg
Derived measurements
Relative humidity 86%
Wind chill 23°F
Density altitude -680 ft.
Remarks
Special weather observation.
METAR SPUS81 KWBC 201707 SPECI KRFD 201703Z 12015KT 1 3/4SM R01/6000VP6000FT -RA BR OVC007 01/M01 A2975

Settings

Location code

InnerDrive.Weather 4.0.6770.0 Release CLR 4.0.30319.42000
Copyright ©2018 Inner Drive Technology. All rights reserved. Portions Copyright ©1986-2018 David Braverman.

Find weather

Site navigation


Skip Navigation Links

Place info

Page info

PayPal - The safer, easier way to pay online!

Return home.

Copyright ©2019 Inner Drive Technology. Purveyors of fine, hand-crafted computer software. Page printed 2019-02-20T17:57:16 UTC.